sensor_id;sensor_type;location;lat;lon;timestamp;pressure;altitude;pressure_sealevel;temperature;humidity
80308;BME280;69616;43.522;1.348;2023-11-21T00:00:04;100275.69;;;10.90;79.61
80308;BME280;69616;43.522;1.348;2023-11-21T00:02:35;100273.06;;;10.90;79.18
80308;BME280;69616;43.522;1.348;2023-11-21T00:05:00;100262.50;;;10.90;79.44
80308;BME280;69616;43.522;1.348;2023-11-21T00:07:26;100272.16;;;10.91;79.52
80308;BME280;69616;43.522;1.348;2023-11-21T00:09:51;100271.31;;;10.89;79.52
80308;BME280;69616;43.522;1.348;2023-11-21T00:12:16;100273.06;;;10.90;79.47
80308;BME280;69616;43.522;1.348;2023-11-21T00:14:42;100267.78;;;10.90;79.45
80308;BME280;69616;43.522;1.348;2023-11-21T00:17:08;100271.31;;;10.89;79.32
80308;BME280;69616;43.522;1.348;2023-11-21T00:19:33;100273.94;;;10.89;79.66
80308;BME280;69616;43.522;1.348;2023-11-21T00:22:00;100261.66;;;10.88;79.35
80308;BME280;69616;43.522;1.348;2023-11-21T00:24:25;100269.56;;;10.90;79.25
80308;BME280;69616;43.522;1.348;2023-11-21T00:26:51;100267.81;;;10.89;79.63
80308;BME280;69616;43.522;1.348;2023-11-21T00:29:16;100266.94;;;10.90;79.30
80308;BME280;69616;43.522;1.348;2023-11-21T00:31:44;100259.88;;;10.90;79.41
80308;BME280;69616;43.522;1.348;2023-11-21T00:34:10;100259.03;;;10.90;79.16
80308;BME280;69616;43.522;1.348;2023-11-21T00:36:36;100259.00;;;10.91;79.34
80308;BME280;69616;43.522;1.348;2023-11-21T00:39:01;100256.38;;;10.91;79.25
80308;BME280;69616;43.522;1.348;2023-11-21T00:41:29;100254.63;;;10.90;79.24
80308;BME280;69616;43.522;1.348;2023-11-21T00:43:54;100251.97;;;10.90;79.22
80308;BME280;69616;43.522;1.348;2023-11-21T00:46:20;100240.59;;;10.90;79.06
80308;BME280;69616;43.522;1.348;2023-11-21T00:48:45;100251.13;;;10.90;79.52
80308;BME280;69616;43.522;1.348;2023-11-21T00:51:11;100243.22;;;10.88;79.19
80308;BME280;69616;43.522;1.348;2023-11-21T00:53:36;100241.44;;;10.90;79.44
80308;BME280;69616;43.522;1.348;2023-11-21T00:56:02;100245.84;;;10.90;79.42
80308;BME280;69616;43.522;1.348;2023-11-21T00:58:27;100249.38;;;10.89;79.17
80308;BME280;69616;43.522;1.348;2023-11-21T01:00:53;100247.63;;;10.88;79.11
80308;BME280;69616;43.522;1.348;2023-11-21T01:03:18;100246.72;;;10.87;79.15
80308;BME280;69616;43.522;1.348;2023-11-21T01:05:44;100243.22;;;10.88;79.36
80308;BME280;69616;43.522;1.348;2023-11-21T01:08:11;100235.31;;;10.90;79.14
80308;BME280;69616;43.522;1.348;2023-11-21T01:10:36;100234.41;;;10.89;78.89
80308;BME280;69616;43.522;1.348;2023-11-21T01:13:02;100229.19;;;10.86;78.97
80308;BME280;69616;43.522;1.348;2023-11-21T01:15:29;100237.94;;;10.88;79.27
80308;BME280;69616;43.522;1.348;2023-11-21T01:17:54;100230.03;;;10.88;79.49
80308;BME280;69616;43.522;1.348;2023-11-21T01:20:20;100234.41;;;10.89;79.11
80308;BME280;69616;43.522;1.348;2023-11-21T01:22:45;100229.19;;;10.88;78.94
80308;BME280;69616;43.522;1.348;2023-11-21T01:25:14;100232.69;;;10.85;78.99
80308;BME280;69616;43.522;1.348;2023-11-21T01:27:41;100234.44;;;10.85;79.21
80308;BME280;69616;43.522;1.348;2023-11-21T01:30:07;100222.19;;;10.82;79.11
80308;BME280;69616;43.522;1.348;2023-11-21T01:32:34;100213.38;;;10.82;79.01
80308;BME280;69616;43.522;1.348;2023-11-21T01:34:59;100208.13;;;10.82;78.96
80308;BME280;69616;43.522;1.348;2023-11-21T01:37:25;100220.44;;;10.81;79.14
80308;BME280;69616;43.522;1.348;2023-11-21T01:39:53;100211.63;;;10.81;78.74
80308;BME280;69616;43.522;1.348;2023-11-21T01:42:20;100212.50;;;10.83;78.79
80308;BME280;69616;43.522;1.348;2023-11-21T01:44:46;100213.38;;;10.83;79.23
80308;BME280;69616;43.522;1.348;2023-11-21T01:47:13;100210.78;;;10.80;78.79
80308;BME280;69616;43.522;1.348;2023-11-21T01:49:39;100213.38;;;10.83;78.55
80308;BME280;69616;43.522;1.348;2023-11-21T01:52:05;100217.78;;;10.81;78.82
80308;BME280;69616;43.522;1.348;2023-11-21T01:54:31;100210.78;;;10.80;79.00
80308;BME280;69616;43.522;1.348;2023-11-21T01:57:00;100202.00;;;10.80;78.69
80308;BME280;69616;43.522;1.348;2023-11-21T01:59:37;100195.84;;;10.79;78.84
80308;BME280;69616;43.522;1.348;2023-11-21T02:02:06;100192.38;;;10.77;78.59
80308;BME280;69616;43.522;1.348;2023-11-21T02:04:32;100183.56;;;10.76;79.17
80308;BME280;69616;43.522;1.348;2023-11-21T02:06:59;100185.34;;;10.73;78.96
80308;BME280;69616;43.522;1.348;2023-11-21T02:09:28;100171.31;;;10.71;79.24
80308;BME280;69616;43.522;1.348;2023-11-21T02:11:56;100171.34;;;10.69;79.45
80308;BME280;69616;43.522;1.348;2023-11-21T02:14:21;100173.97;;;10.68;79.43
80308;BME280;69616;43.522;1.348;2023-11-21T02:16:49;100169.59;;;10.67;79.32
80308;BME280;69616;43.522;1.348;2023-11-21T02:19:18;100166.13;;;10.63;79.28
80308;BME280;69616;43.522;1.348;2023-11-21T02:21:51;100167.84;;;10.62;79.78
80308;BME280;69616;43.522;1.348;2023-11-21T02:24:23;100172.28;;;10.57;79.96
80308;BME280;69616;43.522;1.348;2023-11-21T02:26:49;100159.13;;;10.57;79.89
80308;BME280;69616;43.522;1.348;2023-11-21T02:29:17;100162.63;;;10.56;79.86
80308;BME280;69616;43.522;1.348;2023-11-21T02:31:44;100155.63;;;10.55;79.82
80308;BME280;69616;43.522;1.348;2023-11-21T02:34:17;100153.88;;;10.54;79.98
80308;BME280;69616;43.522;1.348;2023-11-21T02:36:43;100148.59;;;10.54;79.97
80308;BME280;69616;43.522;1.348;2023-11-21T02:39:12;100147.72;;;10.54;79.76
80308;BME280;69616;43.522;1.348;2023-11-21T02:41:38;100142.47;;;10.52;79.93
80308;BME280;69616;43.522;1.348;2023-11-21T02:44:07;100125.81;;;10.50;80.28
80308;BME280;69616;43.522;1.348;2023-11-21T02:46:36;100137.22;;;10.49;79.95
80308;BME280;69616;43.522;1.348;2023-11-21T02:49:03;100139.84;;;10.46;80.51
80308;BME280;69616;43.522;1.348;2023-11-21T02:51:32;100137.22;;;10.47;79.99
80308;BME280;69616;43.522;1.348;2023-11-21T02:53:58;100137.22;;;10.49;80.24
80308;BME280;69616;43.522;1.348;2023-11-21T02:56:27;100129.31;;;10.46;80.14
80308;BME280;69616;43.522;1.348;2023-11-21T02:58:55;100129.31;;;10.46;80.26
80308;BME280;69616;43.522;1.348;2023-11-21T03:01:20;100128.50;;;10.42;80.54
80308;BME280;69616;43.522;1.348;2023-11-21T03:03:46;100130.22;;;10.42;80.39
80308;BME280;69616;43.522;1.348;2023-11-21T03:06:13;100127.59;;;10.42;80.57
80308;BME280;69616;43.522;1.348;2023-11-21T03:08:38;100122.34;;;10.42;80.41
80308;BME280;69616;43.522;1.348;2023-11-21T03:11:04;100122.34;;;10.42;80.30
80308;BME280;69616;43.522;1.348;2023-11-21T03:13:29;100115.31;;;10.41;80.17
80308;BME280;69616;43.522;1.348;2023-11-21T03:15:55;100110.06;;;10.41;80.41
80308;BME280;69616;43.522;1.348;2023-11-21T03:18:21;100101.25;;;10.39;80.51
80308;BME280;69616;43.522;1.348;2023-11-21T03:20:47;100104.78;;;10.38;80.39
80308;BME280;69616;43.522;1.348;2023-11-21T03:23:12;100102.16;;;10.34;80.34
80308;BME280;69616;43.522;1.348;2023-11-21T03:25:38;100099.53;;;10.34;80.53
80308;BME280;69616;43.522;1.348;2023-11-21T03:28:03;100096.91;;;10.34;80.34
80308;BME280;69616;43.522;1.348;2023-11-21T03:30:29;100098.66;;;10.34;80.73
80308;BME280;69616;43.522;1.348;2023-11-21T03:32:54;100103.06;;;10.32;80.29
80308;BME280;69616;43.522;1.348;2023-11-21T03:35:20;100101.31;;;10.32;80.65
80308;BME280;69616;43.522;1.348;2023-11-21T03:37:49;100101.31;;;10.31;80.70
80308;BME280;69616;43.522;1.348;2023-11-21T03:40:14;100101.31;;;10.29;80.41
80308;BME280;69616;43.522;1.348;2023-11-21T03:42:39;100096.97;;;10.25;80.46
80308;BME280;69616;43.522;1.348;2023-11-21T03:45:06;100093.47;;;10.22;80.50
80308;BME280;69616;43.522;1.348;2023-11-21T03:47:32;100093.50;;;10.18;80.50
80308;BME280;69616;43.522;1.348;2023-11-21T03:49:57;100095.25;;;10.16;80.16
80308;BME280;69616;43.522;1.348;2023-11-21T03:52:24;100090.88;;;10.14;80.27
80308;BME280;69616;43.522;1.348;2023-11-21T03:54:50;100098.78;;;10.09;80.51
80308;BME280;69616;43.522;1.348;2023-11-21T03:57:15;100097.94;;;10.05;80.16
80308;BME280;69616;43.522;1.348;2023-11-21T03:59:41;100099.72;;;10.03;80.15
80308;BME280;69616;43.522;1.348;2023-11-21T04:02:07;100092.69;;;10.02;80.20
80308;BME280;69616;43.522;1.348;2023-11-21T04:04:33;100093.56;;;10.00;80.34
80308;BME280;69616;43.522;1.348;2023-11-21T04:06:59;100088.31;;;9.98;80.10
80308;BME280;69616;43.522;1.348;2023-11-21T04:09:24;100087.44;;;9.96;80.12
80308;BME280;69616;43.522;1.348;2023-11-21T04:11:51;100084.81;;;9.93;80.40
80308;BME280;69616;43.522;1.348;2023-11-21T04:14:16;100097.13;;;9.89;80.38
80308;BME280;69616;43.522;1.348;2023-11-21T04:16:42;100087.47;;;9.88;80.33
80308;BME280;69616;43.522;1.348;2023-11-21T04:19:08;100081.34;;;9.86;80.02
80308;BME280;69616;43.522;1.348;2023-11-21T04:21:36;100088.38;;;9.84;80.16
80308;BME280;69616;43.522;1.348;2023-11-21T04:24:01;100085.75;;;9.83;80.09
80308;BME280;69616;43.522;1.348;2023-11-21T04:26:27;100086.63;;;9.83;80.32
80308;BME280;69616;43.522;1.348;2023-11-21T04:28:52;100084.00;;;9.80;80.41
80308;BME280;69616;43.522;1.348;2023-11-21T04:31:17;100076.13;;;9.77;80.14
80308;BME280;69616;43.522;1.348;2023-11-21T04:33:43;100075.25;;;9.78;80.15
80308;BME280;69616;43.522;1.348;2023-11-21T04:36:10;100069.97;;;9.76;79.92
80308;BME280;69616;43.522;1.348;2023-11-21T04:38:35;100063.88;;;9.73;80.42
80308;BME280;69616;43.522;1.348;2023-11-21T04:41:01;100060.34;;;9.72;79.96
80308;BME280;69616;43.522;1.348;2023-11-21T04:43:26;100058.63;;;9.71;80.33
80308;BME280;69616;43.522;1.348;2023-11-21T04:45:51;100065.63;;;9.69;79.97
80308;BME280;69616;43.522;1.348;2023-11-21T04:48:17;100067.41;;;9.69;80.32
80308;BME280;69616;43.522;1.348;2023-11-21T04:50:42;100064.78;;;9.67;80.56
80308;BME280;69616;43.522;1.348;2023-11-21T04:53:07;100064.78;;;9.66;80.31
80308;BME280;69616;43.522;1.348;2023-11-21T04:55:33;100070.91;;;9.68;80.61
80308;BME280;69616;43.522;1.348;2023-11-21T04:57:58;100069.16;;;9.68;80.63
80308;BME280;69616;43.522;1.348;2023-11-21T05:00:24;100060.41;;;9.68;80.58
80308;BME280;69616;43.522;1.348;2023-11-21T05:02:49;100068.28;;;9.71;80.42
80308;BME280;69616;43.522;1.348;2023-11-21T05:05:15;100061.22;;;9.74;80.22
80308;BME280;69616;43.522;1.348;2023-11-21T05:07:40;100064.75;;;9.73;80.42
80308;BME280;69616;43.522;1.348;2023-11-21T05:10:07;100060.34;;;9.75;80.57
80308;BME280;69616;43.522;1.348;2023-11-21T05:12:36;100062.09;;;9.78;80.39
80308;BME280;69616;43.522;1.348;2023-11-21T05:15:06;100059.47;;;9.80;80.27
80308;BME280;69616;43.522;1.348;2023-11-21T05:17:38;100055.09;;;9.82;80.17
80308;BME280;69616;43.522;1.348;2023-11-21T05:20:15;100048.94;;;9.83;80.63
80308;BME280;69616;43.522;1.348;2023-11-21T05:22:47;100054.19;;;9.84;80.42
80308;BME280;69616;43.522;1.348;2023-11-21T05:25:13;100048.03;;;9.87;80.23
80308;BME280;69616;43.522;1.348;2023-11-21T05:27:39;100043.66;;;9.89;80.15
80308;BME280;69616;43.522;1.348;2023-11-21T05:30:05;100048.91;;;9.89;80.17
80308;BME280;69616;43.522;1.348;2023-11-21T05:32:31;100053.28;;;9.90;79.98
80308;BME280;69616;43.522;1.348;2023-11-21T05:34:57;100053.28;;;9.91;79.91
80308;BME280;69616;43.522;1.348;2023-11-21T05:37:22;100042.75;;;9.90;80.21
80308;BME280;69616;43.522;1.348;2023-11-21T05:39:48;100045.38;;;9.90;80.16
80308;BME280;69616;43.522;1.348;2023-11-21T05:42:14;100047.13;;;9.91;79.97
80308;BME280;69616;43.522;1.348;2023-11-21T05:44:41;100050.66;;;9.91;80.22
80308;BME280;69616;43.522;1.348;2023-11-21T05:47:07;100052.38;;;9.94;80.23
80308;BME280;69616;43.522;1.348;2023-11-21T05:49:33;100045.34;;;9.96;80.27
80308;BME280;69616;43.522;1.348;2023-11-21T05:52:00;100052.34;;;9.97;80.20
80308;BME280;69616;43.522;1.348;2023-11-21T05:54:25;100044.47;;;9.97;80.03
80308;BME280;69616;43.522;1.348;2023-11-21T05:56:51;100042.69;;;9.99;80.21
80308;BME280;69616;43.522;1.348;2023-11-21T05:59:17;100041.81;;;10.00;79.99
80308;BME280;69616;43.522;1.348;2023-11-21T06:01:42;100047.06;;;10.00;80.42
80308;BME280;69616;43.522;1.348;2023-11-21T06:04:07;100054.97;;;10.02;80.76
80308;BME280;69616;43.522;1.348;2023-11-21T06:06:35;100047.09;;;10.02;80.60
80308;BME280;69616;43.522;1.348;2023-11-21T06:09:00;100050.56;;;10.04;80.59
80308;BME280;69616;43.522;1.348;2023-11-21T06:11:25;100047.09;;;10.03;80.46
80308;BME280;69616;43.522;1.348;2023-11-21T06:13:51;100040.91;;;10.06;80.92
80308;BME280;69616;43.522;1.348;2023-11-21T06:16:18;100043.56;;;10.08;81.18
80308;BME280;69616;43.522;1.348;2023-11-21T06:18:45;100047.94;;;10.09;80.91
80308;BME280;69616;43.522;1.348;2023-11-21T06:21:11;100035.66;;;10.06;81.33
80308;BME280;69616;43.522;1.348;2023-11-21T06:23:36;100047.06;;;10.07;81.10
80308;BME280;69616;43.522;1.348;2023-11-21T06:26:02;100055.81;;;10.09;81.29
80308;BME280;69616;43.522;1.348;2023-11-21T06:28:29;100048.78;;;10.11;80.95
80308;BME280;69616;43.522;1.348;2023-11-21T06:30:54;100041.75;;;10.13;81.30
80308;BME280;69616;43.522;1.348;2023-11-21T06:33:20;100047.03;;;10.13;81.10
80308;BME280;69616;43.522;1.348;2023-11-21T06:35:47;100036.50;;;10.14;81.04
80308;BME280;69616;43.522;1.348;2023-11-21T06:38:12;100042.63;;;10.15;81.27
80308;BME280;69616;43.522;1.348;2023-11-21T06:40:37;100040.88;;;10.15;81.10
80308;BME280;69616;43.522;1.348;2023-11-21T06:43:03;100045.25;;;10.19;81.02
80308;BME280;69616;43.522;1.348;2023-11-21T06:45:30;100043.47;;;10.20;81.63
80308;BME280;69616;43.522;1.348;2023-11-21T06:47:55;100040.84;;;10.22;81.59
80308;BME280;69616;43.522;1.348;2023-11-21T06:50:21;100041.69;;;10.22;81.59
80308;BME280;69616;43.522;1.348;2023-11-21T06:52:46;100044.31;;;10.22;81.33
80308;BME280;69616;43.522;1.348;2023-11-21T06:55:12;100046.97;;;10.24;82.11
80308;BME280;69616;43.522;1.348;2023-11-21T06:57:38;100050.44;;;10.24;81.77
80308;BME280;69616;43.522;1.348;2023-11-21T07:00:04;100050.44;;;10.24;82.02
80308;BME280;69616;43.522;1.348;2023-11-21T07:02:30;100053.09;;;10.26;81.79
80308;BME280;69616;43.522;1.348;2023-11-21T07:04:55;100053.97;;;10.25;82.20
80308;BME280;69616;43.522;1.348;2023-11-21T07:07:20;100052.22;;;10.25;82.17
80308;BME280;69616;43.522;1.348;2023-11-21T07:09:46;100054.84;;;10.24;82.35
80308;BME280;69616;43.522;1.348;2023-11-21T07:12:13;100050.47;;;10.26;82.55
80308;BME280;69616;43.522;1.348;2023-11-21T07:14:39;100048.72;;;10.26;82.66
80308;BME280;69616;43.522;1.348;2023-11-21T07:17:06;100051.34;;;10.26;82.60
80308;BME280;69616;43.522;1.348;2023-11-21T07:19:31;100050.47;;;10.27;82.72
80308;BME280;69616;43.522;1.348;2023-11-21T07:21:57;100058.34;;;10.27;82.51
80308;BME280;69616;43.522;1.348;2023-11-21T07:24:22;100054.84;;;10.27;82.85
80308;BME280;69616;43.522;1.348;2023-11-21T07:26:48;100064.47;;;10.29;82.81
80308;BME280;69616;43.522;1.348;2023-11-21T07:29:14;100067.09;;;10.31;82.59
80308;BME280;69616;43.522;1.348;2023-11-21T07:31:39;100071.47;;;10.32;82.73
80308;BME280;69616;43.522;1.348;2023-11-21T07:34:06;100072.34;;;10.32;82.94
80308;BME280;69616;43.522;1.348;2023-11-21T07:36:32;100082.00;;;10.33;82.71
80308;BME280;69616;43.522;1.348;2023-11-21T07:38:58;100075.84;;;10.34;83.35
80308;BME280;69616;43.522;1.348;2023-11-21T07:41:23;100081.09;;;10.38;83.02
80308;BME280;69616;43.522;1.348;2023-11-21T07:43:49;100096.00;;;10.39;82.81
80308;BME280;69616;43.522;1.348;2023-11-21T07:46:14;100093.38;;;10.39;82.97
80308;BME280;69616;43.522;1.348;2023-11-21T07:48:41;100098.63;;;10.39;83.35
80308;BME280;69616;43.522;1.348;2023-11-21T07:51:11;100090.72;;;10.39;82.88
80308;BME280;69616;43.522;1.348;2023-11-21T07:53:38;100093.38;;;10.39;83.38
80308;BME280;69616;43.522;1.348;2023-11-21T07:56:08;100090.78;;;10.40;83.33
80308;BME280;69616;43.522;1.348;2023-11-21T07:58:35;100101.28;;;10.42;83.35
80308;BME280;69616;43.522;1.348;2023-11-21T08:01:01;100096.00;;;10.43;83.58
80308;BME280;69616;43.522;1.348;2023-11-21T08:03:27;100099.50;;;10.44;83.48
80308;BME280;69616;43.522;1.348;2023-11-21T08:05:52;100100.38;;;10.47;83.42
80308;BME280;69616;43.522;1.348;2023-11-21T08:08:18;100106.50;;;10.51;83.75
80308;BME280;69616;43.522;1.348;2023-11-21T08:10:44;100114.41;;;10.51;83.74
80308;BME280;69616;43.522;1.348;2023-11-21T08:13:13;100110.88;;;10.52;83.38
80308;BME280;69616;43.522;1.348;2023-11-21T08:15:41;100115.25;;;10.56;83.79
80308;BME280;69616;43.522;1.348;2023-11-21T08:18:10;100117.84;;;10.58;83.81
80308;BME280;69616;43.522;1.348;2023-11-21T08:20:35;100113.44;;;10.60;83.90
80308;BME280;69616;43.522;1.348;2023-11-21T08:23:03;100111.66;;;10.63;83.97
80308;BME280;69616;43.522;1.348;2023-11-21T08:25:31;100119.56;;;10.65;84.03
80308;BME280;69616;43.522;1.348;2023-11-21T08:27:57;100117.78;;;10.69;83.93
80308;BME280;69616;43.522;1.348;2023-11-21T08:30:22;100123.91;;;10.71;84.12
80308;BME280;69616;43.522;1.348;2023-11-21T08:32:49;100125.66;;;10.75;84.09
80308;BME280;69616;43.522;1.348;2023-11-21T08:35:14;100128.28;;;10.75;84.32
80308;BME280;69616;43.522;1.348;2023-11-21T08:37:41;100122.09;;;10.77;84.20
80308;BME280;69616;43.522;1.348;2023-11-21T08:40:07;100126.47;;;10.83;83.92
80308;BME280;69616;43.522;1.348;2023-11-21T08:42:35;100115.91;;;10.86;84.05
80308;BME280;69616;43.522;1.348;2023-11-21T08:45:00;100118.50;;;10.91;84.07
80308;BME280;69616;43.522;1.348;2023-11-21T08:47:26;100116.72;;;10.91;84.32
80308;BME280;69616;43.522;1.348;2023-11-21T08:49:52;100122.84;;;10.95;84.38
80308;BME280;69616;43.522;1.348;2023-11-21T08:52:19;100121.97;;;10.95;84.21
80308;BME280;69616;43.522;1.348;2023-11-21T08:54:48;100124.59;;;10.98;84.29
80308;BME280;69616;43.522;1.348;2023-11-21T08:57:14;100117.56;;;10.98;84.48
80308;BME280;69616;43.522;1.348;2023-11-21T08:59:39;100126.31;;;11.00;84.21
80308;BME280;69616;43.522;1.348;2023-11-21T09:02:05;100119.31;;;11.01;84.39
80308;BME280;69616;43.522;1.348;2023-11-21T09:04:31;100121.06;;;11.02;84.13
80308;BME280;69616;43.522;1.348;2023-11-21T09:06:56;100128.06;;;11.03;84.58
80308;BME280;69616;43.522;1.348;2023-11-21T09:09:22;100120.16;;;11.03;84.74
80308;BME280;69616;43.522;1.348;2023-11-21T09:11:49;100127.19;;;11.04;84.69
80308;BME280;69616;43.522;1.348;2023-11-21T09:14:15;100126.28;;;11.05;84.54
80308;BME280;69616;43.522;1.348;2023-11-21T09:16:41;100124.53;;;11.07;84.85
80308;BME280;69616;43.522;1.348;2023-11-21T09:19:06;100131.53;;;11.06;84.49
80308;BME280;69616;43.522;1.348;2023-11-21T09:21:32;100125.41;;;11.04;84.69
80308;BME280;69616;43.522;1.348;2023-11-21T09:23:58;100127.16;;;11.07;84.96
80308;BME280;69616;43.522;1.348;2023-11-21T09:26:23;100123.63;;;11.08;85.12
80308;BME280;69616;43.522;1.348;2023-11-21T09:28:49;100126.28;;;11.08;84.92
80308;BME280;69616;43.522;1.348;2023-11-21T09:31:14;100127.97;;;11.12;85.02
80308;BME280;69616;43.522;1.348;2023-11-21T09:33:43;100128.84;;;11.14;85.23
80308;BME280;69616;43.522;1.348;2023-11-21T09:36:12;100120.94;;;11.16;85.24
80308;BME280;69616;43.522;1.348;2023-11-21T09:38:40;100118.28;;;11.17;84.79
80308;BME280;69616;43.522;1.348;2023-11-21T09:41:14;100124.41;;;11.21;85.30
80308;BME280;69616;43.522;1.348;2023-11-21T09:43:43;100124.41;;;11.23;85.16
80308;BME280;69616;43.522;1.348;2023-11-21T09:46:12;100129.59;;;11.27;85.06
80308;BME280;69616;43.522;1.348;2023-11-21T09:48:43;100132.25;;;11.29;84.55
80308;BME280;69616;43.522;1.348;2023-11-21T09:51:10;100126.03;;;11.33;84.88
80308;BME280;69616;43.522;1.348;2023-11-21T09:53:36;100132.19;;;11.35;84.93
80308;BME280;69616;43.522;1.348;2023-11-21T09:56:04;100131.28;;;11.38;84.90
80308;BME280;69616;43.522;1.348;2023-11-21T09:58:30;100135.66;;;11.37;84.63
80308;BME280;69616;43.522;1.348;2023-11-21T10:00:59;100135.66;;;11.39;84.67
80308;BME280;69616;43.522;1.348;2023-11-21T10:03:25;100142.66;;;11.41;85.25
80308;BME280;69616;43.522;1.348;2023-11-21T10:05:51;100132.97;;;11.45;85.19
80308;BME280;69616;43.522;1.348;2023-11-21T10:08:19;100132.97;;;11.45;85.12
80308;BME280;69616;43.522;1.348;2023-11-21T10:10:51;100128.59;;;11.45;84.77
80308;BME280;69616;43.522;1.348;2023-11-21T10:13:18;100130.31;;;11.46;84.73
80308;BME280;69616;43.522;1.348;2023-11-21T10:15:49;100132.06;;;11.44;84.75
80308;BME280;69616;43.522;1.348;2023-11-21T10:18:15;100135.59;;;11.46;84.78
80308;BME280;69616;43.522;1.348;2023-11-21T10:20:41;100135.56;;;11.49;85.27
80308;BME280;69616;43.522;1.348;2023-11-21T10:23:08;100139.09;;;11.48;85.12
80308;BME280;69616;43.522;1.348;2023-11-21T10:25:36;100130.28;;;11.48;85.01
80308;BME280;69616;43.522;1.348;2023-11-21T10:28:03;100136.41;;;11.50;84.91
80308;BME280;69616;43.522;1.348;2023-11-21T10:30:36;100140.84;;;11.49;85.11
80308;BME280;69616;43.522;1.348;2023-11-21T10:33:06;100135.53;;;11.53;85.09
80308;BME280;69616;43.522;1.348;2023-11-21T10:35:44;100134.63;;;11.54;84.79
80308;BME280;69616;43.522;1.348;2023-11-21T10:38:12;100133.72;;;11.58;84.95
80308;BME280;69616;43.522;1.348;2023-11-21T10:40:40;100135.41;;;11.62;84.77
80308;BME280;69616;43.522;1.348;2023-11-21T10:43:07;100135.38;;;11.67;84.09
80308;BME280;69616;43.522;1.348;2023-11-21T10:45:35;100131.81;;;11.72;84.54
80308;BME280;69616;43.522;1.348;2023-11-21T10:48:05;100130.84;;;11.78;84.31
80308;BME280;69616;43.522;1.348;2023-11-21T10:50:32;100129.94;;;11.82;83.88
80308;BME280;69616;43.522;1.348;2023-11-21T10:52:58;100129.06;;;11.82;83.69
80308;BME280;69616;43.522;1.348;2023-11-21T10:55:23;100133.44;;;11.83;83.94
80308;BME280;69616;43.522;1.348;2023-11-21T10:57:52;100132.50;;;11.87;83.47
80308;BME280;69616;43.522;1.348;2023-11-21T11:00:19;100119.31;;;11.87;83.19
80308;BME280;69616;43.522;1.348;2023-11-21T11:02:51;100126.34;;;11.88;83.63
80308;BME280;69616;43.522;1.348;2023-11-21T11:05:19;100126.31;;;11.91;83.40
80308;BME280;69616;43.522;1.348;2023-11-21T11:07:48;100124.53;;;11.93;83.30
80308;BME280;69616;43.522;1.348;2023-11-21T11:10:19;100121.88;;;11.96;83.58
80308;BME280;69616;43.522;1.348;2023-11-21T11:12:48;100124.47;;;11.99;83.61
80308;BME280;69616;43.522;1.348;2023-11-21T11:15:16;100116.53;;;12.01;83.40
80308;BME280;69616;43.522;1.348;2023-11-21T11:17:41;100120.94;;;12.03;83.07
80308;BME280;69616;43.522;1.348;2023-11-21T11:20:11;100119.16;;;12.04;83.19
80308;BME280;69616;43.522;1.348;2023-11-21T11:22:43;100125.31;;;12.03;82.65
80308;BME280;69616;43.522;1.348;2023-11-21T11:34:53;100122.72;;;11.98;82.52
80308;BME280;69616;43.522;1.348;2023-11-21T11:38:01;100123.66;;;11.94;82.57
80308;BME280;69616;43.522;1.348;2023-11-21T11:47:41;100134.34;;;11.82;83.20
80308;BME280;69616;43.522;1.348;2023-11-21T11:50:21;100124.72;;;11.77;83.52
80308;BME280;69616;43.522;1.348;2023-11-21T11:52:49;100126.47;;;11.78;83.20
80308;BME280;69616;43.522;1.348;2023-11-21T11:58:22;100121.22;;;11.75;83.29
80308;BME280;69616;43.522;1.348;2023-11-21T12:01:08;100112.41;;;11.76;83.88
80308;BME280;69616;43.522;1.348;2023-11-21T12:04:01;100113.28;;;11.77;83.59
80308;BME280;69616;43.522;1.348;2023-11-21T12:06:42;100112.41;;;11.76;83.62
80308;BME280;69616;43.522;1.348;2023-11-21T12:09:24;100098.38;;;11.74;83.51
80308;BME280;69616;43.522;1.348;2023-11-21T12:12:31;100096.63;;;11.73;83.33
80308;BME280;69616;43.522;1.348;2023-11-21T12:15:07;100094.81;;;11.78;83.68
80308;BME280;69616;43.522;1.348;2023-11-21T12:18:06;100091.19;;;11.86;83.54
80308;BME280;69616;43.522;1.348;2023-11-21T12:20:51;100093.75;;;11.92;83.23
80308;BME280;69616;43.522;1.348;2023-11-21T12:23:26;100091.91;;;11.99;83.52
80308;BME280;69616;43.522;1.348;2023-11-21T12:32:37;100099.72;;;12.10;83.41
80308;BME280;69616;43.522;1.348;2023-11-21T12:35:03;100097.03;;;12.13;83.36
80308;BME280;69616;43.522;1.348;2023-11-21T12:38:14;100103.22;;;12.12;83.42
80308;BME280;69616;43.522;1.348;2023-11-21T12:40:51;100105.00;;;12.10;83.45
80308;BME280;69616;43.522;1.348;2023-11-21T12:43:16;100107.69;;;12.08;83.54
